メインページ
METAR-TAF:

METAR-TAF

空港 :

アルジェ, アルジェリア

ウアリ・ブーメディアン空港

緯度: 36-43N, 経度: 003-15E, 海抜: 25m

現時点の気象観測

当レポートは26分前の11:30(UTC)に作成
南/南西の風 5kt、から西/南西の間で変化する
気温 9°C
湿度 100%
気圧 1013 hPa
視程: 2500m
高度600ftの雲はほとんどない
高度2000ftの雲は散在している
高度2600ftの雲はほとんどない, 積乱雲.
高度8000ftの千切れ雲あり

METAR: DAAG 241130Z 21005KT 190V250 2500 RA FEW006 SCT020 FEW026CB BKN080 09/09 Q1013

時間: 12:56 (11:56 UTC)

予報

当レポートは56分前の11:00(UTC)に作成
予報は24日の 12時(UTC)から 25日の 12時(UTC)まで有効
西の風 12kt
視程: 8000m
高度1000ftの雲はほとんどない
高度2600ftの千切れ雲あり
高度8000ftの千切れ雲あり
小雨
確率 40%
24日の 12時(UTC)から 24日の 18時(UTC)まで
視程: 3000m
高度1500ftの千切れ雲あり
高度2300ftの雲はほとんどない, 積乱雲.
確率 30% :
24日の 12時(UTC)から 24日の 16時(UTC)まで一時的に
西の風 15kt、最大30ktの突風を伴う
視程: 3000m
高度2300ftの雲はほとんどない, 積乱雲.
激しい雷雨, 小雨
24日の 20時(UTC)から 24日の 23時(UTC)まで徐々に
の風 8kt

TAF: DAAG 241100Z 2412/2512 26012KT 8000 -RA FEW010 BKN026 BKN080 PROB40 2412/2418 3000 RA BKN015 FEW023CB PROB30 TEMPO 2412/2416 26015G30KT 3000 -TSRA FEW023CB BECMG 2420/2423 18008KT NSW

4,000以上の空港の気象観測と天気予報(METAR報とTAF報)

利用可能な観測所は地図上に黄色い丸と赤い丸で示す。

丸の上にカーソルを重ねると観測所名を参照できる。

次にクリックすると気象観測と天気予報を参照できる。

マップの切り替え:黒色「×」印の緑ボタンをクリックして拡大、「-」印の緑ボタンをクリックして縮小、緑色の三角印をクリックして隣りの地図に切り替え


METAR-TAF: